sensor_id;sensor_type;location;lat;lon;timestamp;pressure;altitude;pressure_sealevel;temperature;humidity
56689;BME280;42565;53.342;-1.534;2023-02-14T00:00:27;100401.83;;;6.98;62.60
56689;BME280;42565;53.342;-1.534;2023-02-14T00:02:54;100402.02;;;6.85;62.84
56689;BME280;42565;53.342;-1.534;2023-02-14T00:05:21;100398.16;;;7.01;62.53
56689;BME280;42565;53.342;-1.534;2023-02-14T00:07:48;100396.33;;;6.85;62.99
56689;BME280;42565;53.342;-1.534;2023-02-14T00:10:16;100393.59;;;6.48;65.27
56689;BME280;42565;53.342;-1.534;2023-02-14T00:12:43;100395.51;;;6.76;64.60
56689;BME280;42565;53.342;-1.534;2023-02-14T00:15:11;100399.47;;;7.24;63.31
56689;BME280;42565;53.342;-1.534;2023-02-14T00:17:38;100396.32;;;6.35;64.95
56689;BME280;42565;53.342;-1.534;2023-02-14T00:20:06;100393.31;;;6.80;64.26
56689;BME280;42565;53.342;-1.534;2023-02-14T00:22:33;100396.81;;;5.59;66.66
56689;BME280;42565;53.342;-1.534;2023-02-14T00:25:00;100393.99;;;6.69;64.84
56689;BME280;42565;53.342;-1.534;2023-02-14T00:27:27;100396.74;;;6.54;64.18
56689;BME280;42565;53.342;-1.534;2023-02-14T00:29:55;100399.77;;;6.49;64.43
56689;BME280;42565;53.342;-1.534;2023-02-14T00:32:23;100393.74;;;6.31;65.30
56689;BME280;42565;53.342;-1.534;2023-02-14T00:34:50;100395.36;;;6.53;64.21
56689;BME280;42565;53.342;-1.534;2023-02-14T00:37:18;100395.64;;;6.65;63.02
56689;BME280;42565;53.342;-1.534;2023-02-14T00:39:45;100393.16;;;6.66;64.60
56689;BME280;42565;53.342;-1.534;2023-02-14T00:42:12;100393.51;;;6.13;66.09
56689;BME280;42565;53.342;-1.534;2023-02-14T00:44:40;100391.43;;;6.35;66.87
56689;BME280;42565;53.342;-1.534;2023-02-14T00:47:07;100389.22;;;5.75;66.20
56689;BME280;42565;53.342;-1.534;2023-02-14T00:49:35;100386.28;;;6.08;65.95
56689;BME280;42565;53.342;-1.534;2023-02-14T00:52:02;100385.32;;;5.71;67.64
56689;BME280;42565;53.342;-1.534;2023-02-14T00:54:28;100387.21;;;5.50;68.54
56689;BME280;42565;53.342;-1.534;2023-02-14T00:56:56;100377.80;;;6.02;67.64
56689;BME280;42565;53.342;-1.534;2023-02-14T00:59:23;100378.49;;;6.09;66.33
56689;BME280;42565;53.342;-1.534;2023-02-14T01:01:50;100375.75;;;6.43;64.16
56689;BME280;42565;53.342;-1.534;2023-02-14T01:04:17;100373.14;;;6.47;64.08
56689;BME280;42565;53.342;-1.534;2023-02-14T01:06:45;100371.93;;;6.27;64.57
56689;BME280;42565;53.342;-1.534;2023-02-14T01:09:12;100365.47;;;6.56;64.05
56689;BME280;42565;53.342;-1.534;2023-02-14T01:11:40;100363.33;;;7.16;62.71
56689;BME280;42565;53.342;-1.534;2023-02-14T01:14:07;100362.32;;;6.57;63.62
56689;BME280;42565;53.342;-1.534;2023-02-14T01:16:37;100362.37;;;6.41;64.27
56689;BME280;42565;53.342;-1.534;2023-02-14T01:19:04;100356.90;;;6.47;63.50
56689;BME280;42565;53.342;-1.534;2023-02-14T01:21:33;100360.05;;;5.87;65.65
56689;BME280;42565;53.342;-1.534;2023-02-14T01:24:02;100357.34;;;6.17;65.26
56689;BME280;42565;53.342;-1.534;2023-02-14T01:26:30;100352.80;;;5.78;65.71
56689;BME280;42565;53.342;-1.534;2023-02-14T01:28:57;100357.11;;;5.53;66.79
56689;BME280;42565;53.342;-1.534;2023-02-14T01:31:27;100359.75;;;5.31;67.22
56689;BME280;42565;53.342;-1.534;2023-02-14T01:33:55;100357.75;;;4.85;69.94
56689;BME280;42565;53.342;-1.534;2023-02-14T01:36:26;100355.94;;;4.81;70.22
56689;BME280;42565;53.342;-1.534;2023-02-14T01:38:55;100353.99;;;5.31;67.81
56689;BME280;42565;53.342;-1.534;2023-02-14T01:41:27;100358.25;;;5.01;67.16
56689;BME280;42565;53.342;-1.534;2023-02-14T01:43:57;100356.05;;;4.71;70.50
56689;BME280;42565;53.342;-1.534;2023-02-14T01:46:26;100355.22;;;5.59;68.34
56689;BME280;42565;53.342;-1.534;2023-02-14T01:48:58;100353.96;;;5.35;69.36
56689;BME280;42565;53.342;-1.534;2023-02-14T01:51:27;100349.39;;;5.10;69.94
56689;BME280;42565;53.342;-1.534;2023-02-14T01:53:55;100345.29;;;5.00;72.05
56689;BME280;42565;53.342;-1.534;2023-02-14T01:56:27;100346.22;;;4.61;74.91
56689;BME280;42565;53.342;-1.534;2023-02-14T01:58:57;100344.15;;;4.94;73.44
56689;BME280;42565;53.342;-1.534;2023-02-14T02:01:26;100349.37;;;4.80;72.59
56689;BME280;42565;53.342;-1.534;2023-02-14T02:03:56;100349.22;;;4.93;73.67
56689;BME280;42565;53.342;-1.534;2023-02-14T02:06:29;100354.16;;;3.91;77.01
56689;BME280;42565;53.342;-1.534;2023-02-14T02:09:06;100353.02;;;4.76;75.54
56689;BME280;42565;53.342;-1.534;2023-02-14T02:11:34;100352.79;;;5.01;74.46
56689;BME280;42565;53.342;-1.534;2023-02-14T02:14:02;100354.13;;;4.91;74.95
56689;BME280;42565;53.342;-1.534;2023-02-14T02:16:41;100353.14;;;4.74;75.15
56689;BME280;42565;53.342;-1.534;2023-02-14T02:19:35;100349.24;;;4.31;76.44
56689;BME280;42565;53.342;-1.534;2023-02-14T02:22:41;100345.49;;;3.95;76.39
56689;BME280;42565;53.342;-1.534;2023-02-14T02:25:31;100340.65;;;4.46;76.09
56689;BME280;42565;53.342;-1.534;2023-02-14T02:28:24;100337.76;;;4.45;75.56
56689;BME280;42565;53.342;-1.534;2023-02-14T02:31:10;100328.16;;;4.25;76.87
56689;BME280;42565;53.342;-1.534;2023-02-14T02:36:15;100323.20;;;5.01;75.75
56689;BME280;42565;53.342;-1.534;2023-02-14T02:38:55;100324.42;;;4.53;75.92
56689;BME280;42565;53.342;-1.534;2023-02-14T02:41:32;100308.73;;;4.44;76.62
56689;BME280;42565;53.342;-1.534;2023-02-14T02:44:11;100307.86;;;4.76;74.96
56689;BME280;42565;53.342;-1.534;2023-02-14T02:46:48;100308.52;;;4.69;75.57
56689;BME280;42565;53.342;-1.534;2023-02-14T02:49:27;100300.39;;;4.01;77.08
56689;BME280;42565;53.342;-1.534;2023-02-14T02:51:59;100319.37;;;4.49;75.37
56689;BME280;42565;53.342;-1.534;2023-02-14T02:54:33;100318.77;;;4.11;76.24
56689;BME280;42565;53.342;-1.534;2023-02-14T02:57:02;100329.64;;;3.92;77.58
56689;BME280;42565;53.342;-1.534;2023-02-14T02:59:35;100326.13;;;3.35;79.88
56689;BME280;42565;53.342;-1.534;2023-02-14T03:02:10;100331.13;;;3.16;81.54
56689;BME280;42565;53.342;-1.534;2023-02-14T03:04:42;100324.30;;;3.37;80.77
56689;BME280;42565;53.342;-1.534;2023-02-14T03:07:11;100310.42;;;3.83;79.05
56689;BME280;42565;53.342;-1.534;2023-02-14T03:09:57;100315.30;;;3.76;79.56
56689;BME280;42565;53.342;-1.534;2023-02-14T03:12:48;100312.48;;;3.44;80.99
56689;BME280;42565;53.342;-1.534;2023-02-14T03:15:25;100305.76;;;3.84;79.51
56689;BME280;42565;53.342;-1.534;2023-02-14T03:18:03;100306.34;;;4.46;77.84
56689;BME280;42565;53.342;-1.534;2023-02-14T03:20:37;100301.83;;;3.61;78.27
56689;BME280;42565;53.342;-1.534;2023-02-14T03:23:15;100302.43;;;4.02;77.79
56689;BME280;42565;53.342;-1.534;2023-02-14T03:25:52;100307.22;;;3.29;81.02
56689;BME280;42565;53.342;-1.534;2023-02-14T03:28:30;100300.44;;;4.18;77.22
56689;BME280;42565;53.342;-1.534;2023-02-14T03:31:06;100304.68;;;4.00;78.37
56689;BME280;42565;53.342;-1.534;2023-02-14T03:33:39;100306.90;;;3.98;78.39
56689;BME280;42565;53.342;-1.534;2023-02-14T03:36:13;100312.39;;;2.97;81.16
56689;BME280;42565;53.342;-1.534;2023-02-14T03:38:48;100316.70;;;3.86;78.62
56689;BME280;42565;53.342;-1.534;2023-02-14T03:41:21;100307.56;;;3.41;77.70
56689;BME280;42565;53.342;-1.534;2023-02-14T03:43:53;100303.45;;;3.98;77.24
56689;BME280;42565;53.342;-1.534;2023-02-14T03:46:24;100310.94;;;4.45;74.90
56689;BME280;42565;53.342;-1.534;2023-02-14T03:48:56;100306.74;;;4.11;75.17
56689;BME280;42565;53.342;-1.534;2023-02-14T03:51:25;100304.94;;;3.82;75.55
56689;BME280;42565;53.342;-1.534;2023-02-14T03:53:55;100304.81;;;3.78;74.77
56689;BME280;42565;53.342;-1.534;2023-02-14T03:56:30;100298.01;;;3.79;74.03
56689;BME280;42565;53.342;-1.534;2023-02-14T03:59:05;100292.81;;;3.58;75.83
56689;BME280;42565;53.342;-1.534;2023-02-14T04:01:36;100287.08;;;2.68;80.17
56689;BME280;42565;53.342;-1.534;2023-02-14T04:04:06;100293.40;;;2.82;80.73
56689;BME280;42565;53.342;-1.534;2023-02-14T04:06:34;100285.34;;;2.75;80.19
56689;BME280;42565;53.342;-1.534;2023-02-14T04:09:02;100284.03;;;3.11;80.52
56689;BME280;42565;53.342;-1.534;2023-02-14T04:11:29;100287.55;;;2.84;80.78
56689;BME280;42565;53.342;-1.534;2023-02-14T04:13:58;100283.50;;;2.74;79.88
56689;BME280;42565;53.342;-1.534;2023-02-14T04:16:25;100281.07;;;2.14;84.10
56689;BME280;42565;53.342;-1.534;2023-02-14T04:18:53;100283.57;;;2.38;83.75
56689;BME280;42565;53.342;-1.534;2023-02-14T04:21:20;100279.97;;;1.87;84.53
56689;BME280;42565;53.342;-1.534;2023-02-14T04:23:47;100275.10;;;2.29;83.20
56689;BME280;42565;53.342;-1.534;2023-02-14T04:26:15;100273.00;;;2.72;82.16
56689;BME280;42565;53.342;-1.534;2023-02-14T04:28:42;100278.54;;;3.53;78.56
56689;BME280;42565;53.342;-1.534;2023-02-14T04:31:08;100277.20;;;2.98;79.26
56689;BME280;42565;53.342;-1.534;2023-02-14T04:33:36;100271.72;;;3.84;76.41
56689;BME280;42565;53.342;-1.534;2023-02-14T04:36:04;100279.01;;;3.10;78.83
56689;BME280;42565;53.342;-1.534;2023-02-14T04:38:31;100286.32;;;3.57;76.96
56689;BME280;42565;53.342;-1.534;2023-02-14T04:40:58;100276.35;;;2.68;79.64
56689;BME280;42565;53.342;-1.534;2023-02-14T04:43:25;100281.07;;;3.00;78.31
56689;BME280;42565;53.342;-1.534;2023-02-14T04:45:52;100274.05;;;3.28;77.82
56689;BME280;42565;53.342;-1.534;2023-02-14T04:48:19;100272.90;;;2.64;78.96
56689;BME280;42565;53.342;-1.534;2023-02-14T04:50:50;100271.61;;;3.16;78.31
56689;BME280;42565;53.342;-1.534;2023-02-14T04:53:18;100265.42;;;2.87;79.76
56689;BME280;42565;53.342;-1.534;2023-02-14T04:55:47;100279.33;;;2.95;80.52
56689;BME280;42565;53.342;-1.534;2023-02-14T04:58:14;100272.05;;;3.03;78.79
56689;BME280;42565;53.342;-1.534;2023-02-14T05:00:41;100282.03;;;3.15;77.19
56689;BME280;42565;53.342;-1.534;2023-02-14T05:03:08;100285.85;;;3.24;77.21
56689;BME280;42565;53.342;-1.534;2023-02-14T05:05:35;100287.35;;;3.15;77.66
56689;BME280;42565;53.342;-1.534;2023-02-14T05:08:02;100279.66;;;3.02;78.43
56689;BME280;42565;53.342;-1.534;2023-02-14T05:10:29;100288.66;;;2.05;81.04
56689;BME280;42565;53.342;-1.534;2023-02-14T05:12:57;100279.88;;;2.11;82.99
56689;BME280;42565;53.342;-1.534;2023-02-14T05:15:24;100288.94;;;1.77;82.33
56689;BME280;42565;53.342;-1.534;2023-02-14T05:17:51;100284.02;;;2.27;82.57
56689;BME280;42565;53.342;-1.534;2023-02-14T05:20:18;100278.48;;;2.35;81.89
56689;BME280;42565;53.342;-1.534;2023-02-14T05:22:45;100272.31;;;2.48;81.59
56689;BME280;42565;53.342;-1.534;2023-02-14T05:25:12;100284.94;;;2.28;79.43
56689;BME280;42565;53.342;-1.534;2023-02-14T05:27:39;100281.16;;;2.18;81.01
56689;BME280;42565;53.342;-1.534;2023-02-14T05:30:08;100280.98;;;2.58;78.84
56689;BME280;42565;53.342;-1.534;2023-02-14T05:32:35;100278.06;;;2.87;76.28
56689;BME280;42565;53.342;-1.534;2023-02-14T05:35:03;100281.24;;;3.31;75.94
56689;BME280;42565;53.342;-1.534;2023-02-14T05:37:30;100284.48;;;2.71;76.50
56689;BME280;42565;53.342;-1.534;2023-02-14T05:39:58;100279.20;;;3.17;74.89
56689;BME280;42565;53.342;-1.534;2023-02-14T05:42:25;100274.52;;;3.49;72.33
56689;BME280;42565;53.342;-1.534;2023-02-14T05:44:51;100276.82;;;3.58;72.13
56689;BME280;42565;53.342;-1.534;2023-02-14T05:47:18;100282.96;;;3.70;71.52
56689;BME280;42565;53.342;-1.534;2023-02-14T05:49:45;100282.95;;;4.18;70.36
56689;BME280;42565;53.342;-1.534;2023-02-14T05:52:12;100277.77;;;3.49;71.92
56689;BME280;42565;53.342;-1.534;2023-02-14T05:54:40;100279.79;;;4.32;69.29
56689;BME280;42565;53.342;-1.534;2023-02-14T05:57:07;100277.81;;;4.77;67.02
56689;BME280;42565;53.342;-1.534;2023-02-14T05:59:34;100277.25;;;4.63;66.21
56689;BME280;42565;53.342;-1.534;2023-02-14T06:02:02;100282.64;;;4.37;68.08
56689;BME280;42565;53.342;-1.534;2023-02-14T06:04:29;100276.89;;;3.93;68.26
56689;BME280;42565;53.342;-1.534;2023-02-14T06:06:56;100277.29;;;4.12;68.80
56689;BME280;42565;53.342;-1.534;2023-02-14T06:09:23;100269.82;;;3.34;69.41
56689;BME280;42565;53.342;-1.534;2023-02-14T06:11:51;100273.36;;;3.93;68.93
56689;BME280;42565;53.342;-1.534;2023-02-14T06:14:18;100273.78;;;3.55;70.19
56689;BME280;42565;53.342;-1.534;2023-02-14T06:16:45;100279.02;;;3.52;69.74
56689;BME280;42565;53.342;-1.534;2023-02-14T06:19:13;100278.64;;;4.19;67.81
56689;BME280;42565;53.342;-1.534;2023-02-14T06:21:40;100279.51;;;4.39;67.15
56689;BME280;42565;53.342;-1.534;2023-02-14T06:24:07;100276.11;;;3.83;68.12
56689;BME280;42565;53.342;-1.534;2023-02-14T06:26:34;100274.80;;;4.52;66.47
56689;BME280;42565;53.342;-1.534;2023-02-14T06:29:02;100275.26;;;4.82;64.78
56689;BME280;42565;53.342;-1.534;2023-02-14T06:31:29;100272.40;;;4.67;64.50
56689;BME280;42565;53.342;-1.534;2023-02-14T06:33:56;100273.20;;;5.02;64.15
56689;BME280;42565;53.342;-1.534;2023-02-14T06:36:24;100285.83;;;4.95;64.11
56689;BME280;42565;53.342;-1.534;2023-02-14T06:38:51;100277.20;;;5.07;63.75
56689;BME280;42565;53.342;-1.534;2023-02-14T06:41:18;100284.60;;;4.88;63.22
56689;BME280;42565;53.342;-1.534;2023-02-14T06:43:46;100286.73;;;4.81;63.96
56689;BME280;42565;53.342;-1.534;2023-02-14T06:46:14;100287.25;;;4.32;65.20
56689;BME280;42565;53.342;-1.534;2023-02-14T06:48:41;100285.28;;;4.12;65.90
56689;BME280;42565;53.342;-1.534;2023-02-14T06:51:09;100278.47;;;3.72;66.69
56689;BME280;42565;53.342;-1.534;2023-02-14T06:53:36;100280.76;;;3.49;67.72
56689;BME280;42565;53.342;-1.534;2023-02-14T06:56:04;100281.27;;;3.52;67.39
56689;BME280;42565;53.342;-1.534;2023-02-14T06:58:31;100281.23;;;3.69;66.39
56689;BME280;42565;53.342;-1.534;2023-02-14T07:00:58;100275.69;;;3.44;66.81
56689;BME280;42565;53.342;-1.534;2023-02-14T07:03:27;100274.08;;;3.67;67.00
56689;BME280;42565;53.342;-1.534;2023-02-14T07:05:56;100276.51;;;3.15;68.50
56689;BME280;42565;53.342;-1.534;2023-02-14T07:08:24;100270.51;;;2.75;71.28
56689;BME280;42565;53.342;-1.534;2023-02-14T07:10:54;100267.94;;;2.81;70.32
56689;BME280;42565;53.342;-1.534;2023-02-14T07:13:21;100271.00;;;2.56;71.03
56689;BME280;42565;53.342;-1.534;2023-02-14T07:15:49;100263.55;;;2.75;71.04
56689;BME280;42565;53.342;-1.534;2023-02-14T07:18:16;100266.92;;;2.51;71.37
56689;BME280;42565;53.342;-1.534;2023-02-14T07:20:43;100264.39;;;2.84;70.69
56689;BME280;42565;53.342;-1.534;2023-02-14T07:23:10;100267.42;;;2.63;72.28
56689;BME280;42565;53.342;-1.534;2023-02-14T07:25:42;100264.56;;;2.71;73.29
56689;BME280;42565;53.342;-1.534;2023-02-14T07:28:10;100258.40;;;2.94;72.98
56689;BME280;42565;53.342;-1.534;2023-02-14T07:30:37;100252.51;;;2.80;74.10
56689;BME280;42565;53.342;-1.534;2023-02-14T07:33:04;100261.74;;;3.04;75.05
56689;BME280;42565;53.342;-1.534;2023-02-14T07:35:31;100260.56;;;3.26;73.81
56689;BME280;42565;53.342;-1.534;2023-02-14T07:37:59;100260.55;;;3.19;74.27
56689;BME280;42565;53.342;-1.534;2023-02-14T07:40:26;100265.41;;;3.83;73.26
56689;BME280;42565;53.342;-1.534;2023-02-14T07:42:53;100277.44;;;4.49;71.17
56689;BME280;42565;53.342;-1.534;2023-02-14T07:45:20;100279.96;;;4.73;69.97
56689;BME280;42565;53.342;-1.534;2023-02-14T07:47:48;100286.80;;;5.33;66.29
56689;BME280;42565;53.342;-1.534;2023-02-14T07:50:16;100285.48;;;6.59;61.21
56689;BME280;42565;53.342;-1.534;2023-02-14T07:52:44;100286.10;;;7.59;56.86
56689;BME280;42565;53.342;-1.534;2023-02-14T07:55:12;100286.63;;;7.98;54.98
56689;BME280;42565;53.342;-1.534;2023-02-14T07:57:39;100287.79;;;9.14;51.94
56689;BME280;42565;53.342;-1.534;2023-02-14T08:00:07;100285.05;;;10.17;48.83
56689;BME280;42565;53.342;-1.534;2023-02-14T08:02:34;100288.38;;;10.59;47.46
56689;BME280;42565;53.342;-1.534;2023-02-14T08:05:01;100286.16;;;11.22;46.32
56689;BME280;42565;53.342;-1.534;2023-02-14T08:07:28;100291.16;;;10.53;47.01
56689;BME280;42565;53.342;-1.534;2023-02-14T08:09:55;100294.81;;;10.07;49.08
56689;BME280;42565;53.342;-1.534;2023-02-14T08:12:22;100297.74;;;9.42;51.12
56689;BME280;42565;53.342;-1.534;2023-02-14T08:14:49;100298.98;;;9.12;51.92
56689;BME280;42565;53.342;-1.534;2023-02-14T08:17:17;100294.59;;;9.86;50.59
56689;BME280;42565;53.342;-1.534;2023-02-14T08:19:44;100293.03;;;10.35;49.38
56689;BME280;42565;53.342;-1.534;2023-02-14T08:22:11;100302.41;;;10.87;48.06
56689;BME280;42565;53.342;-1.534;2023-02-14T08:24:38;100301.06;;;10.95;47.22
56689;BME280;42565;53.342;-1.534;2023-02-14T08:27:05;100299.38;;;9.71;50.12
56689;BME280;42565;53.342;-1.534;2023-02-14T08:29:32;100307.90;;;9.61;51.11
56689;BME280;42565;53.342;-1.534;2023-02-14T08:31:59;100304.17;;;10.22;50.35
56689;BME280;42565;53.342;-1.534;2023-02-14T08:34:26;100309.60;;;10.41;48.98
56689;BME280;42565;53.342;-1.534;2023-02-14T08:36:53;100308.84;;;10.77;48.43
56689;BME280;42565;53.342;-1.534;2023-02-14T08:39:21;100309.32;;;11.04;47.69
56689;BME280;42565;53.342;-1.534;2023-02-14T08:41:48;100305.54;;;10.73;47.60
56689;BME280;42565;53.342;-1.534;2023-02-14T08:44:15;100303.35;;;11.34;47.02
56689;BME280;42565;53.342;-1.534;2023-02-14T08:46:43;100306.49;;;11.70;46.40
56689;BME280;42565;53.342;-1.534;2023-02-14T08:49:10;100308.87;;;11.63;45.61
56689;BME280;42565;53.342;-1.534;2023-02-14T08:51:37;100309.78;;;11.46;46.89
56689;BME280;42565;53.342;-1.534;2023-02-14T08:54:03;100299.23;;;11.91;46.21
56689;BME280;42565;53.342;-1.534;2023-02-14T08:56:30;100300.45;;;11.59;45.57
56689;BME280;42565;53.342;-1.534;2023-02-14T08:58:58;100294.96;;;11.34;45.20
56689;BME280;42565;53.342;-1.534;2023-02-14T09:01:25;100298.25;;;12.18;45.90
56689;BME280;42565;53.342;-1.534;2023-02-14T09:03:51;100292.79;;;12.38;44.42
56689;BME280;42565;53.342;-1.534;2023-02-14T09:06:18;100289.06;;;12.58;44.82
56689;BME280;42565;53.342;-1.534;2023-02-14T09:08:45;100285.61;;;12.26;44.63
56689;BME280;42565;53.342;-1.534;2023-02-14T09:11:14;100285.69;;;12.24;46.41
56689;BME280;42565;53.342;-1.534;2023-02-14T09:13:42;100292.72;;;12.71;45.39
56689;BME280;42565;53.342;-1.534;2023-02-14T09:16:11;100294.47;;;12.87;45.04
56689;BME280;42565;53.342;-1.534;2023-02-14T09:18:39;100299.53;;;13.16;44.43
56689;BME280;42565;53.342;-1.534;2023-02-14T09:21:08;100296.32;;;13.02;44.41
56689;BME280;42565;53.342;-1.534;2023-02-14T09:23:36;100297.81;;;13.40;44.11
56689;BME280;42565;53.342;-1.534;2023-02-14T09:26:04;100305.10;;;13.67;43.05
56689;BME280;42565;53.342;-1.534;2023-02-14T09:28:32;100305.62;;;13.58;40.80
56689;BME280;42565;53.342;-1.534;2023-02-14T09:31:08;100303.28;;;12.50;43.71
56689;BME280;42565;53.342;-1.534;2023-02-14T09:33:36;100306.15;;;12.81;44.40
56689;BME280;42565;53.342;-1.534;2023-02-14T09:36:04;100307.94;;;13.10;42.97
56689;BME280;42565;53.342;-1.534;2023-02-14T09:38:31;100310.22;;;11.53;47.00
56689;BME280;42565;53.342;-1.534;2023-02-14T09:40:57;100307.15;;;12.90;43.56
56689;BME280;42565;53.342;-1.534;2023-02-14T09:43:30;100303.64;;;13.16;42.14
56689;BME280;42565;53.342;-1.534;2023-02-14T09:46:02;100304.79;;;13.69;42.14
56689;BME280;42565;53.342;-1.534;2023-02-14T09:48:34;100308.75;;;13.93;40.87
56689;BME280;42565;53.342;-1.534;2023-02-14T09:51:04;100310.38;;;14.05;41.46
56689;BME280;42565;53.342;-1.534;2023-02-14T09:53:35;100316.75;;;13.66;41.05
56689;BME280;42565;53.342;-1.534;2023-02-14T09:56:11;100321.51;;;12.36;44.76
56689;BME280;42565;53.342;-1.534;2023-02-14T09:58:50;100320.61;;;12.48;43.91
56689;BME280;42565;53.342;-1.534;2023-02-14T10:01:22;100318.85;;;12.60;44.92
56689;BME280;42565;53.342;-1.534;2023-02-14T10:04:05;100315.44;;;12.58;44.90
56689;BME280;42565;53.342;-1.534;2023-02-14T10:06:45;100314.86;;;12.75;44.23
56689;BME280;42565;53.342;-1.534;2023-02-14T10:09:31;100314.40;;;13.36;43.40
56689;BME280;42565;53.342;-1.534;2023-02-14T10:12:04;100304.76;;;13.79;42.56
56689;BME280;42565;53.342;-1.534;2023-02-14T10:14:37;100309.21;;;14.54;41.55
56689;BME280;42565;53.342;-1.534;2023-02-14T10:17:08;100308.82;;;15.19;39.85
56689;BME280;42565;53.342;-1.534;2023-02-14T10:19:43;100314.58;;;15.16;40.08
56689;BME280;42565;53.342;-1.534;2023-02-14T10:22:14;100319.20;;;14.40;39.17
56689;BME280;42565;53.342;-1.534;2023-02-14T10:24:44;100322.32;;;14.29;41.68
56689;BME280;42565;53.342;-1.534;2023-02-14T10:27:22;100326.20;;;13.87;41.49
56689;BME280;42565;53.342;-1.534;2023-02-14T10:29:52;100327.32;;;13.01;44.33
56689;BME280;42565;53.342;-1.534;2023-02-14T10:32:24;100327.64;;;12.02;45.26
56689;BME280;42565;53.342;-1.534;2023-02-14T10:34:56;100330.04;;;12.91;46.07
56689;BME280;42565;53.342;-1.534;2023-02-14T10:37:36;100331.65;;;12.25;47.03
56689;BME280;42565;53.342;-1.534;2023-02-14T10:40:20;100333.59;;;11.49;48.14
56689;BME280;42565;53.342;-1.534;2023-02-14T10:42:54;100331.41;;;11.60;47.68
56689;BME280;42565;53.342;-1.534;2023-02-14T10:45:28;100331.66;;;11.60;47.99
56689;BME280;42565;53.342;-1.534;2023-02-14T10:48:01;100323.11;;;12.73;45.38
56689;BME280;42565;53.342;-1.534;2023-02-14T10:50:37;100326.73;;;12.92;42.53
56689;BME280;42565;53.342;-1.534;2023-02-14T10:53:14;100329.28;;;12.83;45.24
56689;BME280;42565;53.342;-1.534;2023-02-14T10:55:48;100325.14;;;12.68;44.83
56689;BME280;42565;53.342;-1.534;2023-02-14T10:58:18;100324.42;;;13.15;44.67
56689;BME280;42565;53.342;-1.534;2023-02-14T11:00:53;100321.73;;;12.52;47.57
56689;BME280;42565;53.342;-1.534;2023-02-14T11:03:23;100315.48;;;12.48;46.23
56689;BME280;42565;53.342;-1.534;2023-02-14T11:05:51;100317.32;;;13.04;43.75
56689;BME280;42565;53.342;-1.534;2023-02-14T11:08:24;100315.19;;;12.82;45.84
56689;BME280;42565;53.342;-1.534;2023-02-14T11:10:52;100312.01;;;13.67;41.98
56689;BME280;42565;53.342;-1.534;2023-02-14T11:13:29;100309.98;;;13.72;43.26
56689;BME280;42565;53.342;-1.534;2023-02-14T11:16:00;100305.63;;;14.02;41.42
56689;BME280;42565;53.342;-1.534;2023-02-14T11:18:29;100297.99;;;13.97;41.00
56689;BME280;42565;53.342;-1.534;2023-02-14T11:20:59;100308.74;;;14.04;39.78
56689;BME280;42565;53.342;-1.534;2023-02-14T11:23:32;100305.70;;;15.28;37.06
56689;BME280;42565;53.342;-1.534;2023-02-14T11:25:59;100309.76;;;15.19;36.68
56689;BME280;42565;53.342;-1.534;2023-02-14T11:28:28;100301.61;;;14.34;38.17
56689;BME280;42565;53.342;-1.534;2023-02-14T11:30:55;100296.58;;;14.25;39.42
56689;BME280;42565;53.342;-1.534;2023-02-14T11:33:29;100299.50;;;13.25;39.49
56689;BME280;42565;53.342;-1.534;2023-02-14T11:36:00;100291.49;;;13.32;40.63
56689;BME280;42565;53.342;-1.534;2023-02-14T11:38:31;100289.77;;;13.64;39.11
56689;BME280;42565;53.342;-1.534;2023-02-14T11:40:58;100297.03;;;14.06;38.60
56689;BME280;42565;53.342;-1.534;2023-02-14T11:43:30;100293.67;;;14.09;38.31
56689;BME280;42565;53.342;-1.534;2023-02-14T11:46:13;100295.03;;;14.51;38.61
56689;BME280;42565;53.342;-1.534;2023-02-14T11:48:54;100290.84;;;13.70;39.35
56689;BME280;42565;53.342;-1.534;2023-02-14T11:51:26;100281.44;;;13.94;38.19
56689;BME280;42565;53.342;-1.534;2023-02-14T11:53:57;100275.26;;;13.81;39.59
56689;BME280;42565;53.342;-1.534;2023-02-14T11:56:43;100279.51;;;13.56;41.76
56689;BME280;42565;53.342;-1.534;2023-02-14T11:59:12;100276.43;;;12.97;43.16
56689;BME280;42565;53.342;-1.534;2023-02-14T12:01:40;100278.74;;;13.23;43.52
56689;BME280;42565;53.342;-1.534;2023-02-14T12:04:14;100272.94;;;13.38;43.26
56689;BME280;42565;53.342;-1.534;2023-02-14T12:06:43;100270.08;;;13.74;41.51
56689;BME280;42565;53.342;-1.534;2023-02-14T12:09:11;100264.53;;;14.29;40.64
56689;BME280;42565;53.342;-1.534;2023-02-14T12:11:39;100258.79;;;14.76;38.66
56689;BME280;42565;53.342;-1.534;2023-02-14T12:14:19;100254.53;;;14.96;38.32
56689;BME280;42565;53.342;-1.534;2023-02-14T12:16:54;100253.62;;;14.15;39.29
56689;BME280;42565;53.342;-1.534;2023-02-14T12:19:31;100259.84;;;13.69;39.94
56689;BME280;42565;53.342;-1.534;2023-02-14T12:22:02;100263.76;;;14.27;39.97
56689;BME280;42565;53.342;-1.534;2023-02-14T12:24:32;100263.18;;;14.07;39.59
56689;BME280;42565;53.342;-1.534;2023-02-14T12:27:05;100258.64;;;13.75;39.31
56689;BME280;42565;53.342;-1.534;2023-02-14T12:29:38;100247.21;;;13.49;39.15
56689;BME280;42565;53.342;-1.534;2023-02-14T12:32:15;100239.99;;;14.01;35.41
56689;BME280;42565;53.342;-1.534;2023-02-14T12:34:43;100244.24;;;13.36;34.24
56689;BME280;42565;53.342;-1.534;2023-02-14T12:37:16;100245.55;;;13.22;34.93
56689;BME280;42565;53.342;-1.534;2023-02-14T12:39:58;100243.14;;;13.62;35.64
56689;BME280;42565;53.342;-1.534;2023-02-14T12:42:41;100237.85;;;13.29;34.13
56689;BME280;42565;53.342;-1.534;2023-02-14T12:45:18;100231.79;;;13.50;34.84
56689;BME280;42565;53.342;-1.534;2023-02-14T12:47:54;100229.78;;;13.86;34.53
56689;BME280;42565;53.342;-1.534;2023-02-14T12:50:33;100219.18;;;13.55;35.87
56689;BME280;42565;53.342;-1.534;2023-02-14T12:53:23;100220.80;;;13.66;34.44
56689;BME280;42565;53.342;-1.534;2023-02-14T12:56:01;100211.99;;;14.12;35.17
56689;BME280;42565;53.342;-1.534;2023-02-14T12:58:39;100211.10;;;14.68;32.94
56689;BME280;42565;53.342;-1.534;2023-02-14T13:01:27;100204.39;;;15.48;32.91
56689;BME280;42565;53.342;-1.534;2023-02-14T13:04:04;100204.01;;;15.43;31.24